sensor_id;sensor_type;location;lat;lon;timestamp;P1;durP1;ratioP1;P2;durP2;ratioP2
34900;SDS011;21112;51.976;5.660;2023-03-14T00:01:23;6.57;;;1.92;;
34900;SDS011;21112;51.976;5.660;2023-03-14T00:03:53;5.15;;;1.65;;
34900;SDS011;21112;51.976;5.660;2023-03-14T00:06:23;3.70;;;1.45;;
34900;SDS011;21112;51.976;5.660;2023-03-14T00:08:51;6.95;;;1.70;;
34900;SDS011;21112;51.976;5.660;2023-03-14T00:11:18;3.88;;;1.50;;
34900;SDS011;21112;51.976;5.660;2023-03-14T00:13:46;9.68;;;1.70;;
34900;SDS011;21112;51.976;5.660;2023-03-14T00:16:12;6.43;;;1.52;;
34900;SDS011;21112;51.976;5.660;2023-03-14T00:18:39;6.25;;;1.75;;
34900;SDS011;21112;51.976;5.660;2023-03-14T00:21:06;4.20;;;1.40;;
34900;SDS011;21112;51.976;5.660;2023-03-14T00:23:34;7.68;;;1.60;;
34900;SDS011;21112;51.976;5.660;2023-03-14T00:26:03;4.00;;;1.20;;
34900;SDS011;21112;51.976;5.660;2023-03-14T00:28:31;4.65;;;1.27;;
34900;SDS011;21112;51.976;5.660;2023-03-14T00:30:58;7.00;;;1.60;;
34900;SDS011;21112;51.976;5.660;2023-03-14T00:33:24;5.90;;;1.30;;
34900;SDS011;21112;51.976;5.660;2023-03-14T00:35:54;6.15;;;1.55;;
34900;SDS011;21112;51.976;5.660;2023-03-14T00:38:21;8.93;;;1.75;;
34900;SDS011;21112;51.976;5.660;2023-03-14T00:40:48;3.50;;;1.17;;
34900;SDS011;21112;51.976;5.660;2023-03-14T00:43:18;4.80;;;1.58;;
34900;SDS011;21112;51.976;5.660;2023-03-14T00:45:47;8.40;;;1.90;;
34900;SDS011;21112;51.976;5.660;2023-03-14T00:48:13;4.47;;;1.33;;
34900;SDS011;21112;51.976;5.660;2023-03-14T00:50:39;3.67;;;1.25;;
34900;SDS011;21112;51.976;5.660;2023-03-14T00:53:06;4.63;;;1.35;;
34900;SDS011;21112;51.976;5.660;2023-03-14T00:55:35;2.95;;;1.17;;
34900;SDS011;21112;51.976;5.660;2023-03-14T00:58:02;5.38;;;1.38;;
34900;SDS011;21112;51.976;5.660;2023-03-14T01:00:30;5.18;;;1.20;;
34900;SDS011;21112;51.976;5.660;2023-03-14T01:02:56;4.70;;;1.40;;
34900;SDS011;21112;51.976;5.660;2023-03-14T01:05:23;9.75;;;1.30;;
34900;SDS011;21112;51.976;5.660;2023-03-14T01:07:49;6.40;;;1.27;;
34900;SDS011;21112;51.976;5.660;2023-03-14T01:10:16;3.80;;;1.05;;
34900;SDS011;21112;51.976;5.660;2023-03-14T01:12:44;5.00;;;1.20;;
34900;SDS011;21112;51.976;5.660;2023-03-14T01:15:10;4.93;;;1.00;;
34900;SDS011;21112;51.976;5.660;2023-03-14T01:17:38;2.53;;;1.00;;
34900;SDS011;21112;51.976;5.660;2023-03-14T01:20:06;2.95;;;0.80;;
34900;SDS011;21112;51.976;5.660;2023-03-14T01:22:34;6.88;;;1.17;;
34900;SDS011;21112;51.976;5.660;2023-03-14T01:25:03;6.85;;;0.95;;
34900;SDS011;21112;51.976;5.660;2023-03-14T01:27:30;3.75;;;1.13;;
34900;SDS011;21112;51.976;5.660;2023-03-14T01:29:56;4.57;;;1.02;;
34900;SDS011;21112;51.976;5.660;2023-03-14T01:32:22;6.53;;;1.27;;
34900;SDS011;21112;51.976;5.660;2023-03-14T01:34:51;9.18;;;1.15;;
34900;SDS011;21112;51.976;5.660;2023-03-14T01:37:18;2.10;;;0.93;;
34900;SDS011;21112;51.976;5.660;2023-03-14T01:39:46;3.53;;;1.13;;
34900;SDS011;21112;51.976;5.660;2023-03-14T01:42:12;4.70;;;1.17;;
34900;SDS011;21112;51.976;5.660;2023-03-14T01:44:48;2.58;;;0.90;;
34900;SDS011;21112;51.976;5.660;2023-03-14T01:47:15;5.32;;;1.05;;
34900;SDS011;21112;51.976;5.660;2023-03-14T01:49:41;7.43;;;1.10;;
34900;SDS011;21112;51.976;5.660;2023-03-14T01:52:10;3.92;;;0.85;;
34900;SDS011;21112;51.976;5.660;2023-03-14T01:54:37;2.38;;;0.77;;
34900;SDS011;21112;51.976;5.660;2023-03-14T01:57:06;3.20;;;1.00;;
34900;SDS011;21112;51.976;5.660;2023-03-14T01:59:37;3.58;;;0.80;;
34900;SDS011;21112;51.976;5.660;2023-03-14T02:02:04;5.47;;;1.00;;
34900;SDS011;21112;51.976;5.660;2023-03-14T02:06:59;4.68;;;0.93;;
34900;SDS011;21112;51.976;5.660;2023-03-14T02:09:30;6.63;;;1.13;;
34900;SDS011;21112;51.976;5.660;2023-03-14T02:11:57;6.13;;;1.10;;
34900;SDS011;21112;51.976;5.660;2023-03-14T02:14:26;4.47;;;1.10;;
34900;SDS011;21112;51.976;5.660;2023-03-14T02:16:55;2.88;;;1.00;;
34900;SDS011;21112;51.976;5.660;2023-03-14T02:19:25;6.90;;;0.90;;
34900;SDS011;21112;51.976;5.660;2023-03-14T02:21:54;3.67;;;0.93;;
34900;SDS011;21112;51.976;5.660;2023-03-14T02:24:22;2.80;;;0.82;;
34900;SDS011;21112;51.976;5.660;2023-03-14T02:29:48;4.50;;;1.02;;
34900;SDS011;21112;51.976;5.660;2023-03-14T02:32:15;2.05;;;0.80;;
34900;SDS011;21112;51.976;5.660;2023-03-14T02:34:43;2.45;;;0.88;;
34900;SDS011;21112;51.976;5.660;2023-03-14T02:37:10;3.73;;;0.90;;
34900;SDS011;21112;51.976;5.660;2023-03-14T02:39:38;2.50;;;0.90;;
34900;SDS011;21112;51.976;5.660;2023-03-14T02:42:05;1.93;;;0.97;;
34900;SDS011;21112;51.976;5.660;2023-03-14T02:44:32;4.05;;;1.10;;
34900;SDS011;21112;51.976;5.660;2023-03-14T02:47:02;4.05;;;0.90;;
34900;SDS011;21112;51.976;5.660;2023-03-14T02:49:30;2.03;;;0.70;;
34900;SDS011;21112;51.976;5.660;2023-03-14T02:51:58;2.80;;;0.90;;
34900;SDS011;21112;51.976;5.660;2023-03-14T02:54:24;2.13;;;0.93;;
34900;SDS011;21112;51.976;5.660;2023-03-14T02:56:50;2.33;;;1.10;;
34900;SDS011;21112;51.976;5.660;2023-03-14T02:59:17;4.18;;;1.48;;
34900;SDS011;21112;51.976;5.660;2023-03-14T03:01:43;4.55;;;1.00;;
34900;SDS011;21112;51.976;5.660;2023-03-14T03:04:11;4.20;;;1.13;;
34900;SDS011;21112;51.976;5.660;2023-03-14T03:06:38;2.07;;;0.90;;
34900;SDS011;21112;51.976;5.660;2023-03-14T03:09:04;3.60;;;1.00;;
34900;SDS011;21112;51.976;5.660;2023-03-14T03:11:31;5.65;;;1.05;;
34900;SDS011;21112;51.976;5.660;2023-03-14T03:13:57;1.85;;;0.90;;
34900;SDS011;21112;51.976;5.660;2023-03-14T03:16:24;2.15;;;0.80;;
34900;SDS011;21112;51.976;5.660;2023-03-14T03:18:50;1.25;;;0.63;;
34900;SDS011;21112;51.976;5.660;2023-03-14T03:21:18;2.53;;;0.70;;
34900;SDS011;21112;51.976;5.660;2023-03-14T03:23:48;3.00;;;0.63;;
34900;SDS011;21112;51.976;5.660;2023-03-14T03:26:14;4.38;;;0.85;;
34900;SDS011;21112;51.976;5.660;2023-03-14T03:28:41;7.13;;;1.00;;
34900;SDS011;21112;51.976;5.660;2023-03-14T03:31:08;1.52;;;0.80;;
34900;SDS011;21112;51.976;5.660;2023-03-14T03:33:35;5.28;;;0.98;;
34900;SDS011;21112;51.976;5.660;2023-03-14T03:36:01;3.60;;;0.70;;
34900;SDS011;21112;51.976;5.660;2023-03-14T03:38:29;2.75;;;0.70;;
34900;SDS011;21112;51.976;5.660;2023-03-14T03:40:56;3.83;;;0.90;;
34900;SDS011;21112;51.976;5.660;2023-03-14T03:43:23;2.42;;;0.77;;
34900;SDS011;21112;51.976;5.660;2023-03-14T03:45:49;1.42;;;0.75;;
34900;SDS011;21112;51.976;5.660;2023-03-14T03:48:15;2.25;;;0.75;;
34900;SDS011;21112;51.976;5.660;2023-03-14T03:50:45;4.13;;;0.98;;
34900;SDS011;21112;51.976;5.660;2023-03-14T03:53:11;3.90;;;0.80;;
34900;SDS011;21112;51.976;5.660;2023-03-14T03:55:41;3.58;;;1.00;;
34900;SDS011;21112;51.976;5.660;2023-03-14T03:58:08;2.05;;;0.77;;
34900;SDS011;21112;51.976;5.660;2023-03-14T04:00:34;3.40;;;1.02;;
34900;SDS011;21112;51.976;5.660;2023-03-14T04:03:01;6.72;;;1.40;;
34900;SDS011;21112;51.976;5.660;2023-03-14T04:05:30;3.80;;;1.00;;
34900;SDS011;21112;51.976;5.660;2023-03-14T04:07:56;2.88;;;0.80;;
34900;SDS011;21112;51.976;5.660;2023-03-14T04:10:22;5.32;;;0.93;;
34900;SDS011;21112;51.976;5.660;2023-03-14T04:12:50;2.20;;;0.70;;
34900;SDS011;21112;51.976;5.660;2023-03-14T04:15:17;4.68;;;1.00;;
34900;SDS011;21112;51.976;5.660;2023-03-14T04:17:43;3.88;;;1.23;;
34900;SDS011;21112;51.976;5.660;2023-03-14T04:20:10;6.53;;;1.02;;
34900;SDS011;21112;51.976;5.660;2023-03-14T04:22:37;6.55;;;1.08;;
34900;SDS011;21112;51.976;5.660;2023-03-14T04:25:04;3.80;;;1.00;;
34900;SDS011;21112;51.976;5.660;2023-03-14T04:27:41;7.17;;;1.00;;
34900;SDS011;21112;51.976;5.660;2023-03-14T04:30:10;6.72;;;1.20;;
34900;SDS011;21112;51.976;5.660;2023-03-14T04:32:38;3.33;;;1.05;;
34900;SDS011;21112;51.976;5.660;2023-03-14T04:35:05;4.57;;;1.23;;
34900;SDS011;21112;51.976;5.660;2023-03-14T04:37:35;4.63;;;1.10;;
34900;SDS011;21112;51.976;5.660;2023-03-14T04:40:02;3.08;;;1.20;;
34900;SDS011;21112;51.976;5.660;2023-03-14T04:42:31;3.55;;;1.00;;
34900;SDS011;21112;51.976;5.660;2023-03-14T04:44:57;4.93;;;1.10;;
34900;SDS011;21112;51.976;5.660;2023-03-14T04:47:26;6.75;;;1.25;;
34900;SDS011;21112;51.976;5.660;2023-03-14T04:49:53;3.28;;;1.08;;
34900;SDS011;21112;51.976;5.660;2023-03-14T04:52:19;5.93;;;0.80;;
34900;SDS011;21112;51.976;5.660;2023-03-14T04:54:46;5.40;;;1.10;;
34900;SDS011;21112;51.976;5.660;2023-03-14T04:57:12;5.25;;;1.05;;
34900;SDS011;21112;51.976;5.660;2023-03-14T04:59:38;3.65;;;1.15;;
34900;SDS011;21112;51.976;5.660;2023-03-14T05:02:05;2.95;;;0.98;;
34900;SDS011;21112;51.976;5.660;2023-03-14T05:04:33;6.00;;;1.15;;
34900;SDS011;21112;51.976;5.660;2023-03-14T05:06:59;3.53;;;0.90;;
34900;SDS011;21112;51.976;5.660;2023-03-14T05:09:26;3.33;;;0.90;;
34900;SDS011;21112;51.976;5.660;2023-03-14T05:11:53;2.15;;;1.00;;
34900;SDS011;21112;51.976;5.660;2023-03-14T05:14:22;5.07;;;1.15;;
34900;SDS011;21112;51.976;5.660;2023-03-14T05:16:48;3.80;;;0.80;;
34900;SDS011;21112;51.976;5.660;2023-03-14T05:19:14;6.22;;;0.85;;
34900;SDS011;21112;51.976;5.660;2023-03-14T05:21:42;3.40;;;0.90;;
34900;SDS011;21112;51.976;5.660;2023-03-14T05:24:09;8.33;;;0.90;;
34900;SDS011;21112;51.976;5.660;2023-03-14T05:26:35;2.80;;;0.70;;
34900;SDS011;21112;51.976;5.660;2023-03-14T05:29:02;2.50;;;0.82;;
34900;SDS011;21112;51.976;5.660;2023-03-14T05:31:28;3.97;;;0.90;;
34900;SDS011;21112;51.976;5.660;2023-03-14T05:33:55;2.72;;;0.73;;
34900;SDS011;21112;51.976;5.660;2023-03-14T05:36:21;3.10;;;0.80;;
34900;SDS011;21112;51.976;5.660;2023-03-14T05:38:49;1.08;;;0.73;;
34900;SDS011;21112;51.976;5.660;2023-03-14T05:41:16;3.60;;;0.77;;
34900;SDS011;21112;51.976;5.660;2023-03-14T05:43:42;4.65;;;0.82;;
34900;SDS011;21112;51.976;5.660;2023-03-14T05:46:08;2.50;;;0.68;;
34900;SDS011;21112;51.976;5.660;2023-03-14T05:48:35;3.80;;;0.88;;
34900;SDS011;21112;51.976;5.660;2023-03-14T05:51:07;2.50;;;0.80;;
34900;SDS011;21112;51.976;5.660;2023-03-14T05:53:34;4.00;;;1.08;;
34900;SDS011;21112;51.976;5.660;2023-03-14T05:56:02;5.30;;;1.10;;
34900;SDS011;21112;51.976;5.660;2023-03-14T05:58:30;3.37;;;0.77;;
34900;SDS011;21112;51.976;5.660;2023-03-14T06:03:30;6.05;;;1.20;;
34900;SDS011;21112;51.976;5.660;2023-03-14T06:05:58;3.83;;;1.00;;
34900;SDS011;21112;51.976;5.660;2023-03-14T06:08:30;1.90;;;0.90;;
34900;SDS011;21112;51.976;5.660;2023-03-14T06:11:05;1.83;;;0.95;;
34900;SDS011;21112;51.976;5.660;2023-03-14T06:16:19;3.35;;;1.10;;
34900;SDS011;21112;51.976;5.660;2023-03-14T06:18:46;3.60;;;1.33;;
34900;SDS011;21112;51.976;5.660;2023-03-14T06:21:17;4.30;;;1.38;;
34900;SDS011;21112;51.976;5.660;2023-03-14T06:23:47;3.40;;;1.38;;
34900;SDS011;21112;51.976;5.660;2023-03-14T06:26:16;3.35;;;1.10;;
34900;SDS011;21112;51.976;5.660;2023-03-14T06:28:43;3.10;;;1.10;;
34900;SDS011;21112;51.976;5.660;2023-03-14T06:31:16;3.60;;;1.30;;
34900;SDS011;21112;51.976;5.660;2023-03-14T06:33:46;10.73;;;1.38;;
34900;SDS011;21112;51.976;5.660;2023-03-14T06:36:16;4.97;;;1.50;;
34900;SDS011;21112;51.976;5.660;2023-03-14T06:38:50;5.32;;;1.60;;
34900;SDS011;21112;51.976;5.660;2023-03-14T06:41:19;5.00;;;1.58;;
34900;SDS011;21112;51.976;5.660;2023-03-14T06:43:48;5.97;;;1.63;;
34900;SDS011;21112;51.976;5.660;2023-03-14T06:48:43;3.38;;;1.30;;
34900;SDS011;21112;51.976;5.660;2023-03-14T06:51:15;5.53;;;1.63;;
34900;SDS011;21112;51.976;5.660;2023-03-14T06:53:41;3.95;;;1.55;;
34900;SDS011;21112;51.976;5.660;2023-03-14T06:56:10;5.03;;;1.55;;
34900;SDS011;21112;51.976;5.660;2023-03-14T07:01:25;3.42;;;1.60;;
34900;SDS011;21112;51.976;5.660;2023-03-14T07:03:52;4.57;;;1.73;;
34900;SDS011;21112;51.976;5.660;2023-03-14T07:06:20;4.18;;;1.90;;
34900;SDS011;21112;51.976;5.660;2023-03-14T07:08:48;4.72;;;1.88;;
34900;SDS011;21112;51.976;5.660;2023-03-14T07:11:17;4.80;;;1.80;;
34900;SDS011;21112;51.976;5.660;2023-03-14T07:13:47;3.83;;;1.60;;
34900;SDS011;21112;51.976;5.660;2023-03-14T07:16:16;3.13;;;1.42;;
34900;SDS011;21112;51.976;5.660;2023-03-14T07:18:44;5.53;;;1.80;;
34900;SDS011;21112;51.976;5.660;2023-03-14T07:21:12;4.13;;;1.42;;
34900;SDS011;21112;51.976;5.660;2023-03-14T07:23:43;4.20;;;1.45;;
34900;SDS011;21112;51.976;5.660;2023-03-14T07:26:12;3.05;;;1.23;;
34900;SDS011;21112;51.976;5.660;2023-03-14T07:28:38;3.92;;;1.42;;
34900;SDS011;21112;51.976;5.660;2023-03-14T07:31:10;3.55;;;1.30;;
34900;SDS011;21112;51.976;5.660;2023-03-14T07:33:37;3.10;;;1.08;;
34900;SDS011;21112;51.976;5.660;2023-03-14T07:36:06;3.67;;;1.00;;
34900;SDS011;21112;51.976;5.660;2023-03-14T07:38:33;2.70;;;1.10;;
34900;SDS011;21112;51.976;5.660;2023-03-14T07:43:30;1.73;;;0.90;;
34900;SDS011;21112;51.976;5.660;2023-03-14T07:45:59;3.45;;;1.20;;
34900;SDS011;21112;51.976;5.660;2023-03-14T07:48:32;2.15;;;1.05;;
34900;SDS011;21112;51.976;5.660;2023-03-14T07:51:09;2.65;;;1.00;;
34900;SDS011;21112;51.976;5.660;2023-03-14T07:53:35;4.85;;;0.88;;
34900;SDS011;21112;51.976;5.660;2023-03-14T07:56:06;2.08;;;1.10;;
34900;SDS011;21112;51.976;5.660;2023-03-14T07:58:33;2.22;;;0.85;;
34900;SDS011;21112;51.976;5.660;2023-03-14T08:01:02;1.90;;;0.90;;
34900;SDS011;21112;51.976;5.660;2023-03-14T08:03:31;2.60;;;0.93;;
34900;SDS011;21112;51.976;5.660;2023-03-14T08:05:58;2.63;;;0.90;;
34900;SDS011;21112;51.976;5.660;2023-03-14T08:08:28;2.40;;;0.80;;
34900;SDS011;21112;51.976;5.660;2023-03-14T08:10:57;1.25;;;0.90;;
34900;SDS011;21112;51.976;5.660;2023-03-14T08:13:38;1.45;;;0.88;;
34900;SDS011;21112;51.976;5.660;2023-03-14T08:16:11;1.38;;;0.73;;
34900;SDS011;21112;51.976;5.660;2023-03-14T08:18:37;2.22;;;0.80;;
34900;SDS011;21112;51.976;5.660;2023-03-14T08:21:16;3.00;;;0.95;;
34900;SDS011;21112;51.976;5.660;2023-03-14T08:23:46;2.10;;;0.80;;
34900;SDS011;21112;51.976;5.660;2023-03-14T08:26:22;1.20;;;0.63;;
34900;SDS011;21112;51.976;5.660;2023-03-14T08:28:59;1.58;;;0.82;;
34900;SDS011;21112;51.976;5.660;2023-03-14T08:31:39;4.78;;;0.88;;
34900;SDS011;21112;51.976;5.660;2023-03-14T08:34:24;1.38;;;0.82;;
34900;SDS011;21112;51.976;5.660;2023-03-14T08:37:25;3.05;;;0.77;;
34900;SDS011;21112;51.976;5.660;2023-03-14T08:39:46;1.33;;;0.60;;
34900;SDS011;21112;51.976;5.660;2023-03-14T08:42:17;1.15;;;0.60;;
34900;SDS011;21112;51.976;5.660;2023-03-14T08:44:56;3.10;;;0.70;;
34900;SDS011;21112;51.976;5.660;2023-03-14T08:47:49;2.22;;;0.85;;
34900;SDS011;21112;51.976;5.660;2023-03-14T08:50:21;1.33;;;0.80;;
34900;SDS011;21112;51.976;5.660;2023-03-14T08:52:50;0.85;;;0.45;;
34900;SDS011;21112;51.976;5.660;2023-03-14T08:55:18;3.28;;;0.60;;
34900;SDS011;21112;51.976;5.660;2023-03-14T08:57:52;1.35;;;0.40;;
34900;SDS011;21112;51.976;5.660;2023-03-14T09:00:19;4.57;;;0.68;;
34900;SDS011;21112;51.976;5.660;2023-03-14T09:02:52;2.75;;;0.70;;
34900;SDS011;21112;51.976;5.660;2023-03-14T09:05:22;2.47;;;0.65;;
34900;SDS011;21112;51.976;5.660;2023-03-14T09:07:49;2.20;;;0.68;;
34900;SDS011;21112;51.976;5.660;2023-03-14T09:10:20;4.90;;;0.63;;
34900;SDS011;21112;51.976;5.660;2023-03-14T09:12:49;2.55;;;0.60;;
34900;SDS011;21112;51.976;5.660;2023-03-14T09:15:25;1.83;;;0.57;;
34900;SDS011;21112;51.976;5.660;2023-03-14T09:17:51;1.27;;;0.40;;
34900;SDS011;21112;51.976;5.660;2023-03-14T09:20:22;2.72;;;0.45;;
34900;SDS011;21112;51.976;5.660;2023-03-14T09:22:51;2.33;;;0.38;;
34900;SDS011;21112;51.976;5.660;2023-03-14T09:25:21;1.98;;;0.47;;
34900;SDS011;21112;51.976;5.660;2023-03-14T09:27:51;1.02;;;0.40;;
34900;SDS011;21112;51.976;5.660;2023-03-14T09:30:20;0.47;;;0.45;;
34900;SDS011;21112;51.976;5.660;2023-03-14T09:32:46;3.20;;;0.52;;
34900;SDS011;21112;51.976;5.660;2023-03-14T09:35:14;0.82;;;0.40;;
34900;SDS011;21112;51.976;5.660;2023-03-14T09:37:40;1.15;;;0.45;;
34900;SDS011;21112;51.976;5.660;2023-03-14T09:41:14;3.55;;;0.43;;
34900;SDS011;21112;51.976;5.660;2023-03-14T09:43:31;1.88;;;0.40;;
34900;SDS011;21112;51.976;5.660;2023-03-14T09:45:59;0.80;;;0.30;;
34900;SDS011;21112;51.976;5.660;2023-03-14T09:48:36;2.60;;;0.50;;
34900;SDS011;21112;51.976;5.660;2023-03-14T09:51:07;5.03;;;0.55;;
34900;SDS011;21112;51.976;5.660;2023-03-14T09:53:41;2.92;;;0.70;;
34900;SDS011;21112;51.976;5.660;2023-03-14T09:56:13;5.20;;;0.57;;
34900;SDS011;21112;51.976;5.660;2023-03-14T10:01:27;2.35;;;0.43;;
34900;SDS011;21112;51.976;5.660;2023-03-14T10:03:55;1.98;;;0.60;;
34900;SDS011;21112;51.976;5.660;2023-03-14T10:06:22;6.32;;;0.80;;
34900;SDS011;21112;51.976;5.660;2023-03-14T10:08:56;2.83;;;0.65;;
34900;SDS011;21112;51.976;5.660;2023-03-14T10:11:35;3.40;;;0.65;;
34900;SDS011;21112;51.976;5.660;2023-03-14T10:14:06;3.70;;;0.60;;
34900;SDS011;21112;51.976;5.660;2023-03-14T10:16:35;4.80;;;0.80;;
34900;SDS011;21112;51.976;5.660;2023-03-14T10:19:06;5.68;;;0.70;;
34900;SDS011;21112;51.976;5.660;2023-03-14T10:21:36;3.40;;;0.90;;
34900;SDS011;21112;51.976;5.660;2023-03-14T10:26:51;3.70;;;0.63;;
34900;SDS011;21112;51.976;5.660;2023-03-14T10:29:18;4.18;;;0.50;;
34900;SDS011;21112;51.976;5.660;2023-03-14T10:31:49;6.00;;;0.90;;
34900;SDS011;21112;51.976;5.660;2023-03-14T10:34:17;5.85;;;0.85;;
34900;SDS011;21112;51.976;5.660;2023-03-14T10:36:44;4.53;;;0.80;;
34900;SDS011;21112;51.976;5.660;2023-03-14T10:39:25;4.25;;;0.93;;
34900;SDS011;21112;51.976;5.660;2023-03-14T10:41:58;4.30;;;0.77;;
34900;SDS011;21112;51.976;5.660;2023-03-14T10:44:38;4.55;;;0.77;;
34900;SDS011;21112;51.976;5.660;2023-03-14T10:47:14;10.13;;;0.88;;
34900;SDS011;21112;51.976;5.660;2023-03-14T10:49:53;3.45;;;0.95;;
34900;SDS011;21112;51.976;5.660;2023-03-14T10:52:24;7.03;;;1.27;;
34900;SDS011;21112;51.976;5.660;2023-03-14T10:54:53;9.82;;;1.30;;
34900;SDS011;21112;51.976;5.660;2023-03-14T10:59:56;5.10;;;0.95;;
34900;SDS011;21112;51.976;5.660;2023-03-14T11:02:33;7.93;;;1.15;;
34900;SDS011;21112;51.976;5.660;2023-03-14T11:05:03;6.47;;;1.00;;
34900;SDS011;21112;51.976;5.660;2023-03-14T11:07:38;6.53;;;1.05;;
34900;SDS011;21112;51.976;5.660;2023-03-14T11:10:08;5.53;;;0.95;;
34900;SDS011;21112;51.976;5.660;2023-03-14T11:12:44;5.20;;;1.42;;
34900;SDS011;21112;51.976;5.660;2023-03-14T11:15:15;8.77;;;1.20;;
34900;SDS011;21112;51.976;5.660;2023-03-14T11:17:54;9.32;;;1.80;;
34900;SDS011;21112;51.976;5.660;2023-03-14T11:20:38;8.50;;;1.30;;
34900;SDS011;21112;51.976;5.660;2023-03-14T11:23:08;9.95;;;1.98;;
34900;SDS011;21112;51.976;5.660;2023-03-14T11:25:42;6.72;;;0.90;;
34900;SDS011;21112;51.976;5.660;2023-03-14T11:28:17;7.63;;;1.10;;
34900;SDS011;21112;51.976;5.660;2023-03-14T11:30:46;12.30;;;1.60;;
34900;SDS011;21112;51.976;5.660;2023-03-14T11:33:27;7.30;;;0.98;;
34900;SDS011;21112;51.976;5.660;2023-03-14T11:36:04;7.78;;;1.10;;
34900;SDS011;21112;51.976;5.660;2023-03-14T11:38:35;8.23;;;0.85;;
34900;SDS011;21112;51.976;5.660;2023-03-14T11:41:15;4.53;;;1.05;;
34900;SDS011;21112;51.976;5.660;2023-03-14T11:44:10;11.80;;;1.77;;
34900;SDS011;21112;51.976;5.660;2023-03-14T11:46:41;11.05;;;1.15;;
34900;SDS011;21112;51.976;5.660;2023-03-14T11:49:14;7.25;;;1.40;;
34900;SDS011;21112;51.976;5.660;2023-03-14T11:51:50;4.43;;;1.27;;
34900;SDS011;21112;51.976;5.660;2023-03-14T11:54:24;7.97;;;1.05;;
34900;SDS011;21112;51.976;5.660;2023-03-14T11:56:59;11.50;;;1.52;;
34900;SDS011;21112;51.976;5.660;2023-03-14T11:59:28;10.65;;;1.50;;
34900;SDS011;21112;51.976;5.660;2023-03-14T12:02:00;10.73;;;1.50;;
34900;SDS011;21112;51.976;5.660;2023-03-14T12:04:39;10.55;;;1.48;;
34900;SDS011;21112;51.976;5.660;2023-03-14T12:07:09;7.85;;;1.45;;
34900;SDS011;21112;51.976;5.660;2023-03-14T12:09:40;11.35;;;1.50;;
34900;SDS011;21112;51.976;5.660;2023-03-14T12:12:24;6.05;;;0.77;;
34900;SDS011;21112;51.976;5.660;2023-03-14T12:14:53;17.85;;;2.05;;
34900;SDS011;21112;51.976;5.660;2023-03-14T12:17:35;7.93;;;1.05;;
34900;SDS011;21112;51.976;5.660;2023-03-14T12:20:11;6.50;;;1.20;;
34900;SDS011;21112;51.976;5.660;2023-03-14T12:22:42;7.53;;;0.90;;
34900;SDS011;21112;51.976;5.660;2023-03-14T12:25:23;8.55;;;1.50;;
34900;SDS011;21112;51.976;5.660;2023-03-14T12:30:37;7.35;;;0.95;;
34900;SDS011;21112;51.976;5.660;2023-03-14T12:36:02;10.43;;;1.20;;
34900;SDS011;21112;51.976;5.660;2023-03-14T12:38:32;10.38;;;1.77;;
34900;SDS011;21112;51.976;5.660;2023-03-14T12:41:05;7.97;;;1.10;;
34900;SDS011;21112;51.976;5.660;2023-03-14T12:43:34;7.55;;;1.27;;
34900;SDS011;21112;51.976;5.660;2023-03-14T12:46:09;2.45;;;0.82;;
34900;SDS011;21112;51.976;5.660;2023-03-14T12:48:43;9.15;;;1.35;;
34900;SDS011;21112;51.976;5.660;2023-03-14T12:51:14;5.75;;;1.23;;
34900;SDS011;21112;51.976;5.660;2023-03-14T12:53:54;8.32;;;1.00;;
34900;SDS011;21112;51.976;5.660;2023-03-14T12:56:28;6.78;;;1.10;;
34900;SDS011;21112;51.976;5.660;2023-03-14T12:59:02;3.80;;;0.75;;
34900;SDS011;21112;51.976;5.660;2023-03-14T13:01:47;10.57;;;1.50;;
34900;SDS011;21112;51.976;5.660;2023-03-14T13:04:17;5.90;;;0.85;;
34900;SDS011;21112;51.976;5.660;2023-03-14T13:06:52;6.50;;;1.77;;
34900;SDS011;21112;51.976;5.660;2023-03-14T13:09:36;5.38;;;0.95;;
34900;SDS011;21112;51.976;5.660;2023-03-14T13:15:00;6.28;;;1.20;;
34900;SDS011;21112;51.976;5.660;2023-03-14T13:17:36;10.10;;;1.15;;
34900;SDS011;21112;51.976;5.660;2023-03-14T13:20:10;7.03;;;1.17;;
34900;SDS011;21112;51.976;5.660;2023-03-14T13:22:46;10.70;;;1.08;;
34900;SDS011;21112;51.976;5.660;2023-03-14T13:25:13;3.00;;;0.80;;
34900;SDS011;21112;51.976;5.660;2023-03-14T13:27:46;4.78;;;0.98;;
34900;SDS011;21112;51.976;5.660;2023-03-14T13:30:22;9.75;;;1.20;;
34900;SDS011;21112;51.976;5.660;2023-03-14T13:32:53;7.15;;;0.93;;
34900;SDS011;21112;51.976;5.660;2023-03-14T13:35:26;7.43;;;0.85;;
34900;SDS011;21112;51.976;5.660;2023-03-14T13:37:59;4.40;;;0.68;;
34900;SDS011;21112;51.976;5.660;2023-03-14T13:40:29;3.92;;;0.70;;
34900;SDS011;21112;51.976;5.660;2023-03-14T13:42:59;7.53;;;0.95;;
34900;SDS011;21112;51.976;5.660;2023-03-14T13:45:29;7.28;;;0.80;;
34900;SDS011;21112;51.976;5.660;2023-03-14T13:47:56;11.02;;;1.27;;
34900;SDS011;21112;51.976;5.660;2023-03-14T13:50:23;12.07;;;1.40;;
34900;SDS011;21112;51.976;5.660;2023-03-14T13:53:02;9.20;;;1.10;;
34900;SDS011;21112;51.976;5.660;2023-03-14T13:55:34;5.22;;;1.25;;
34900;SDS011;21112;51.976;5.660;2023-03-14T13:58:03;2.72;;;0.88;;
34900;SDS011;21112;51.976;5.660;2023-03-14T14:00:34;6.35;;;1.00;;
34900;SDS011;21112;51.976;5.660;2023-03-14T14:03:08;7.15;;;0.80;;
34900;SDS011;21112;51.976;5.660;2023-03-14T14:05:37;8.52;;;0.90;;
34900;SDS011;21112;51.976;5.660;2023-03-14T14:08:10;5.57;;;1.67;;
34900;SDS011;21112;51.976;5.660;2023-03-14T14:10:41;4.15;;;0.93;;
34900;SDS011;21112;51.976;5.660;2023-03-14T14:13:08;6.07;;;0.70;;
34900;SDS011;21112;51.976;5.660;2023-03-14T14:15:39;1.85;;;0.60;;
34900;SDS011;21112;51.976;5.660;2023-03-14T14:18:11;6.00;;;0.55;;
34900;SDS011;21112;51.976;5.660;2023-03-14T14:20:39;4.72;;;0.65;;
34900;SDS011;21112;51.976;5.660;2023-03-14T14:23:15;12.80;;;1.33;;
34900;SDS011;21112;51.976;5.660;2023-03-14T14:25:45;7.15;;;0.70;;
34900;SDS011;21112;51.976;5.660;2023-03-14T14:28:15;7.03;;;1.10;;
34900;SDS011;21112;51.976;5.660;2023-03-14T14:30:43;5.50;;;0.90;;
34900;SDS011;21112;51.976;5.660;2023-03-14T14:33:21;8.73;;;1.10;;
34900;SDS011;21112;51.976;5.660;2023-03-14T14:35:53;4.50;;;0.63;;
34900;SDS011;21112;51.976;5.660;2023-03-14T14:38:22;7.80;;;0.88;;
34900;SDS011;21112;51.976;5.660;2023-03-14T14:40:52;6.50;;;1.05;;
34900;SDS011;21112;51.976;5.660;2023-03-14T14:43:21;6.10;;;1.48;;
34900;SDS011;21112;51.976;5.660;2023-03-14T14:48:14;3.20;;;0.63;;
34900;SDS011;21112;51.976;5.660;2023-03-14T14:50:48;6.65;;;0.88;;
34900;SDS011;21112;51.976;5.660;2023-03-14T14:53:23;4.75;;;0.75;;
34900;SDS011;21112;51.976;5.660;2023-03-14T14:55:50;9.27;;;0.95;;
34900;SDS011;21112;51.976;5.660;2023-03-14T14:58:18;3.72;;;1.10;;
34900;SDS011;21112;51.976;5.660;2023-03-14T15:00:53;6.15;;;1.10;;
34900;SDS011;21112;51.976;5.660;2023-03-14T15:03:34;6.38;;;0.88;;
34900;SDS011;21112;51.976;5.660;2023-03-14T15:06:01;2.33;;;0.63;;
34900;SDS011;21112;51.976;5.660;2023-03-14T15:08:30;4.38;;;0.77;;
34900;SDS011;21112;51.976;5.660;2023-03-14T15:10:59;3.58;;;0.82;;
34900;SDS011;21112;51.976;5.660;2023-03-14T15:13:25;5.65;;;0.77;;
34900;SDS011;21112;51.976;5.660;2023-03-14T15:15:54;5.47;;;0.80;;
34900;SDS011;21112;51.976;5.660;2023-03-14T15:18:22;7.03;;;0.82;;
34900;SDS011;21112;51.976;5.660;2023-03-14T15:20:49;4.25;;;0.70;;
34900;SDS011;21112;51.976;5.660;2023-03-14T15:23:16;1.98;;;0.57;;
34900;SDS011;21112;51.976;5.660;2023-03-14T15:25:46;3.85;;;0.88;;
34900;SDS011;21112;51.976;5.660;2023-03-14T15:28:17;5.28;;;0.80;;
34900;SDS011;21112;51.976;5.660;2023-03-14T15:30:44;4.65;;;0.77;;
34900;SDS011;21112;51.976;5.660;2023-03-14T15:33:17;11.18;;;0.90;;
34900;SDS011;21112;51.976;5.660;2023-03-14T15:35:44;6.47;;;1.00;;
34900;SDS011;21112;51.976;5.660;2023-03-14T15:38:13;3.33;;;0.68;;
34900;SDS011;21112;51.976;5.660;2023-03-14T15:40:42;5.03;;;1.05;;
34900;SDS011;21112;51.976;5.660;2023-03-14T15:43:10;9.98;;;1.05;;